sensor_id;sensor_type;location;lat;lon;timestamp;P1;durP1;ratioP1;P2;durP2;ratioP2
15256;SDS011;7731;50.720;6.912;2022-10-22T00:00:48;8.13;;;4.10;;
15256;SDS011;7731;50.720;6.912;2022-10-22T00:03:21;6.45;;;3.70;;
15256;SDS011;7731;50.720;6.912;2022-10-22T00:05:54;8.77;;;3.85;;
15256;SDS011;7731;50.720;6.912;2022-10-22T00:08:30;6.45;;;3.97;;
15256;SDS011;7731;50.720;6.912;2022-10-22T00:11:07;9.35;;;3.90;;
15256;SDS011;7731;50.720;6.912;2022-10-22T00:13:40;6.55;;;3.97;;
15256;SDS011;7731;50.720;6.912;2022-10-22T00:16:30;9.68;;;4.95;;
15256;SDS011;7731;50.720;6.912;2022-10-22T00:19:10;8.50;;;4.80;;
15256;SDS011;7731;50.720;6.912;2022-10-22T00:21:40;7.43;;;4.35;;
15256;SDS011;7731;50.720;6.912;2022-10-22T00:24:11;6.90;;;4.30;;
15256;SDS011;7731;50.720;6.912;2022-10-22T00:26:44;8.68;;;4.18;;
15256;SDS011;7731;50.720;6.912;2022-10-22T00:29:16;9.75;;;4.60;;
15256;SDS011;7731;50.720;6.912;2022-10-22T00:31:46;9.70;;;4.78;;
15256;SDS011;7731;50.720;6.912;2022-10-22T00:34:20;7.15;;;5.10;;
15256;SDS011;7731;50.720;6.912;2022-10-22T00:36:53;8.65;;;5.28;;
15256;SDS011;7731;50.720;6.912;2022-10-22T00:39:27;6.30;;;4.40;;
15256;SDS011;7731;50.720;6.912;2022-10-22T00:41:58;5.90;;;4.40;;
15256;SDS011;7731;50.720;6.912;2022-10-22T00:47:36;6.80;;;4.85;;
15256;SDS011;7731;50.720;6.912;2022-10-22T00:50:15;8.23;;;4.50;;
15256;SDS011;7731;50.720;6.912;2022-10-22T00:52:53;7.28;;;4.47;;
15256;SDS011;7731;50.720;6.912;2022-10-22T00:55:25;8.35;;;5.03;;
15256;SDS011;7731;50.720;6.912;2022-10-22T00:58:00;5.50;;;4.38;;
15256;SDS011;7731;50.720;6.912;2022-10-22T01:00:52;6.50;;;4.72;;
15256;SDS011;7731;50.720;6.912;2022-10-22T01:03:27;8.93;;;4.00;;
15256;SDS011;7731;50.720;6.912;2022-10-22T01:06:04;7.40;;;4.28;;
15256;SDS011;7731;50.720;6.912;2022-10-22T01:08:36;7.07;;;4.25;;
15256;SDS011;7731;50.720;6.912;2022-10-22T01:11:18;5.28;;;4.30;;
15256;SDS011;7731;50.720;6.912;2022-10-22T01:14:02;6.72;;;4.38;;
15256;SDS011;7731;50.720;6.912;2022-10-22T01:16:46;7.25;;;4.72;;
15256;SDS011;7731;50.720;6.912;2022-10-22T01:22:29;8.65;;;4.55;;
15256;SDS011;7731;50.720;6.912;2022-10-22T01:25:20;5.22;;;4.22;;
15256;SDS011;7731;50.720;6.912;2022-10-22T01:28:08;5.80;;;4.15;;
15256;SDS011;7731;50.720;6.912;2022-10-22T01:30:58;8.77;;;4.80;;
15256;SDS011;7731;50.720;6.912;2022-10-22T01:33:32;7.68;;;5.05;;
15256;SDS011;7731;50.720;6.912;2022-10-22T01:36:10;7.97;;;4.90;;
15256;SDS011;7731;50.720;6.912;2022-10-22T01:38:45;5.93;;;4.40;;
15256;SDS011;7731;50.720;6.912;2022-10-22T01:41:17;7.90;;;4.55;;
15256;SDS011;7731;50.720;6.912;2022-10-22T01:43:50;8.35;;;4.70;;
15256;SDS011;7731;50.720;6.912;2022-10-22T01:46:23;8.07;;;4.18;;
15256;SDS011;7731;50.720;6.912;2022-10-22T01:49:00;7.03;;;4.20;;
15256;SDS011;7731;50.720;6.912;2022-10-22T01:51:50;8.40;;;4.15;;
15256;SDS011;7731;50.720;6.912;2022-10-22T01:54:38;5.03;;;4.32;;
15256;SDS011;7731;50.720;6.912;2022-10-22T01:57:21;5.05;;;3.80;;
15256;SDS011;7731;50.720;6.912;2022-10-22T02:00:04;8.23;;;4.63;;
15256;SDS011;7731;50.720;6.912;2022-10-22T02:02:42;8.25;;;4.93;;
15256;SDS011;7731;50.720;6.912;2022-10-22T02:05:27;5.30;;;3.97;;
15256;SDS011;7731;50.720;6.912;2022-10-22T02:08:10;6.75;;;4.13;;
15256;SDS011;7731;50.720;6.912;2022-10-22T02:10:46;8.05;;;4.25;;
15256;SDS011;7731;50.720;6.912;2022-10-22T02:13:20;7.57;;;4.47;;
15256;SDS011;7731;50.720;6.912;2022-10-22T02:15:57;7.72;;;4.40;;
15256;SDS011;7731;50.720;6.912;2022-10-22T02:18:36;5.70;;;4.80;;
15256;SDS011;7731;50.720;6.912;2022-10-22T02:21:13;6.20;;;4.53;;
15256;SDS011;7731;50.720;6.912;2022-10-22T02:23:44;8.80;;;4.80;;
15256;SDS011;7731;50.720;6.912;2022-10-22T02:26:20;5.18;;;4.40;;
15256;SDS011;7731;50.720;6.912;2022-10-22T02:29:10;6.47;;;4.15;;
15256;SDS011;7731;50.720;6.912;2022-10-22T02:31:49;9.30;;;5.00;;
15256;SDS011;7731;50.720;6.912;2022-10-22T02:34:26;5.80;;;4.40;;
15256;SDS011;7731;50.720;6.912;2022-10-22T02:37:00;7.53;;;4.10;;
15256;SDS011;7731;50.720;6.912;2022-10-22T02:39:31;5.18;;;3.95;;
15256;SDS011;7731;50.720;6.912;2022-10-22T02:42:04;9.02;;;4.72;;
15256;SDS011;7731;50.720;6.912;2022-10-22T02:44:34;7.75;;;4.68;;
15256;SDS011;7731;50.720;6.912;2022-10-22T02:47:10;6.72;;;3.97;;
15256;SDS011;7731;50.720;6.912;2022-10-22T02:49:42;6.38;;;4.53;;
15256;SDS011;7731;50.720;6.912;2022-10-22T02:52:13;6.90;;;4.78;;
15256;SDS011;7731;50.720;6.912;2022-10-22T02:54:52;7.00;;;3.65;;
15256;SDS011;7731;50.720;6.912;2022-10-22T02:57:24;9.55;;;5.38;;
15256;SDS011;7731;50.720;6.912;2022-10-22T03:00:01;9.90;;;4.30;;
15256;SDS011;7731;50.720;6.912;2022-10-22T03:02:34;5.80;;;4.22;;
15256;SDS011;7731;50.720;6.912;2022-10-22T03:05:07;6.90;;;4.78;;
15256;SDS011;7731;50.720;6.912;2022-10-22T03:07:38;8.10;;;4.57;;
15256;SDS011;7731;50.720;6.912;2022-10-22T03:10:13;10.15;;;5.57;;
15256;SDS011;7731;50.720;6.912;2022-10-22T03:12:44;13.88;;;5.60;;
15256;SDS011;7731;50.720;6.912;2022-10-22T03:15:14;7.07;;;5.28;;
15256;SDS011;7731;50.720;6.912;2022-10-22T03:18:14;7.07;;;4.80;;
15256;SDS011;7731;50.720;6.912;2022-10-22T03:20:47;7.18;;;4.45;;
15256;SDS011;7731;50.720;6.912;2022-10-22T03:23:18;6.50;;;4.63;;
15256;SDS011;7731;50.720;6.912;2022-10-22T03:25:48;6.57;;;4.93;;
15256;SDS011;7731;50.720;6.912;2022-10-22T03:28:18;6.35;;;5.22;;
15256;SDS011;7731;50.720;6.912;2022-10-22T03:30:52;6.70;;;5.22;;
15256;SDS011;7731;50.720;6.912;2022-10-22T03:33:22;8.63;;;5.47;;
15256;SDS011;7731;50.720;6.912;2022-10-22T03:35:57;8.90;;;6.03;;
15256;SDS011;7731;50.720;6.912;2022-10-22T03:38:28;10.48;;;5.80;;
15256;SDS011;7731;50.720;6.912;2022-10-22T03:40:59;10.65;;;6.05;;
15256;SDS011;7731;50.720;6.912;2022-10-22T03:43:36;10.25;;;5.85;;
15256;SDS011;7731;50.720;6.912;2022-10-22T03:46:07;7.53;;;5.75;;
15256;SDS011;7731;50.720;6.912;2022-10-22T03:48:55;10.43;;;6.25;;
15256;SDS011;7731;50.720;6.912;2022-10-22T03:51:28;8.25;;;5.78;;
15256;SDS011;7731;50.720;6.912;2022-10-22T03:54:07;10.45;;;6.38;;
15256;SDS011;7731;50.720;6.912;2022-10-22T03:56:37;11.63;;;6.10;;
15256;SDS011;7731;50.720;6.912;2022-10-22T03:59:07;7.57;;;5.75;;
15256;SDS011;7731;50.720;6.912;2022-10-22T04:01:43;10.18;;;5.80;;
15256;SDS011;7731;50.720;6.912;2022-10-22T04:04:15;13.80;;;5.65;;
15256;SDS011;7731;50.720;6.912;2022-10-22T04:06:48;7.35;;;5.72;;
15256;SDS011;7731;50.720;6.912;2022-10-22T04:09:21;9.25;;;5.78;;
15256;SDS011;7731;50.720;6.912;2022-10-22T04:11:54;8.02;;;5.85;;
15256;SDS011;7731;50.720;6.912;2022-10-22T04:14:30;11.27;;;6.43;;
15256;SDS011;7731;50.720;6.912;2022-10-22T04:17:00;10.40;;;6.15;;
15256;SDS011;7731;50.720;6.912;2022-10-22T04:19:30;30.70;;;19.75;;
15256;SDS011;7731;50.720;6.912;2022-10-22T04:22:03;14.30;;;8.93;;
15256;SDS011;7731;50.720;6.912;2022-10-22T04:24:36;11.35;;;6.32;;
15256;SDS011;7731;50.720;6.912;2022-10-22T04:27:06;9.25;;;6.53;;
15256;SDS011;7731;50.720;6.912;2022-10-22T04:29:36;8.18;;;6.18;;
15256;SDS011;7731;50.720;6.912;2022-10-22T04:32:15;10.07;;;6.35;;
15256;SDS011;7731;50.720;6.912;2022-10-22T04:34:48;7.80;;;5.68;;
15256;SDS011;7731;50.720;6.912;2022-10-22T04:37:21;7.57;;;6.70;;
15256;SDS011;7731;50.720;6.912;2022-10-22T04:39:53;10.60;;;6.57;;
15256;SDS011;7731;50.720;6.912;2022-10-22T04:42:23;10.23;;;6.68;;
15256;SDS011;7731;50.720;6.912;2022-10-22T04:44:53;8.93;;;6.07;;
15256;SDS011;7731;50.720;6.912;2022-10-22T04:47:33;12.82;;;7.03;;
15256;SDS011;7731;50.720;6.912;2022-10-22T04:50:03;6.78;;;5.80;;
15256;SDS011;7731;50.720;6.912;2022-10-22T04:52:40;7.55;;;5.97;;
15256;SDS011;7731;50.720;6.912;2022-10-22T04:55:10;8.10;;;6.05;;
15256;SDS011;7731;50.720;6.912;2022-10-22T04:57:43;6.28;;;5.22;;
15256;SDS011;7731;50.720;6.912;2022-10-22T05:00:16;13.05;;;6.45;;
15256;SDS011;7731;50.720;6.912;2022-10-22T05:02:48;10.80;;;6.47;;
15256;SDS011;7731;50.720;6.912;2022-10-22T05:05:18;9.13;;;5.60;;
15256;SDS011;7731;50.720;6.912;2022-10-22T05:07:52;10.18;;;5.88;;
15256;SDS011;7731;50.720;6.912;2022-10-22T05:10:22;7.95;;;5.63;;
15256;SDS011;7731;50.720;6.912;2022-10-22T05:12:52;9.20;;;5.90;;
15256;SDS011;7731;50.720;6.912;2022-10-22T05:15:22;10.07;;;5.18;;
15256;SDS011;7731;50.720;6.912;2022-10-22T05:17:52;6.05;;;5.00;;
15256;SDS011;7731;50.720;6.912;2022-10-22T05:20:28;7.88;;;4.82;;
15256;SDS011;7731;50.720;6.912;2022-10-22T05:23:10;9.18;;;4.75;;
15256;SDS011;7731;50.720;6.912;2022-10-22T05:25:40;7.80;;;4.43;;
15256;SDS011;7731;50.720;6.912;2022-10-22T05:28:10;9.30;;;4.93;;
15256;SDS011;7731;50.720;6.912;2022-10-22T05:30:41;8.15;;;4.15;;
15256;SDS011;7731;50.720;6.912;2022-10-22T05:33:20;7.93;;;4.43;;
15256;SDS011;7731;50.720;6.912;2022-10-22T05:35:51;6.78;;;4.30;;
15256;SDS011;7731;50.720;6.912;2022-10-22T05:38:25;6.38;;;4.20;;
15256;SDS011;7731;50.720;6.912;2022-10-22T05:40:59;8.88;;;4.43;;
15256;SDS011;7731;50.720;6.912;2022-10-22T05:43:30;8.70;;;4.22;;
15256;SDS011;7731;50.720;6.912;2022-10-22T05:46:01;7.10;;;4.28;;
15256;SDS011;7731;50.720;6.912;2022-10-22T05:48:35;12.20;;;5.05;;
15256;SDS011;7731;50.720;6.912;2022-10-22T05:51:06;8.07;;;4.80;;
15256;SDS011;7731;50.720;6.912;2022-10-22T05:53:42;6.50;;;5.03;;
15256;SDS011;7731;50.720;6.912;2022-10-22T05:56:14;7.90;;;4.60;;
15256;SDS011;7731;50.720;6.912;2022-10-22T05:58:45;9.85;;;4.85;;
15256;SDS011;7731;50.720;6.912;2022-10-22T06:01:16;7.32;;;4.80;;
15256;SDS011;7731;50.720;6.912;2022-10-22T06:03:51;8.45;;;5.35;;
15256;SDS011;7731;50.720;6.912;2022-10-22T06:06:25;7.72;;;5.82;;
15256;SDS011;7731;50.720;6.912;2022-10-22T06:09:03;6.13;;;5.50;;
15256;SDS011;7731;50.720;6.912;2022-10-22T06:11:39;8.40;;;5.18;;
15256;SDS011;7731;50.720;6.912;2022-10-22T06:14:10;9.38;;;5.82;;
15256;SDS011;7731;50.720;6.912;2022-10-22T06:16:40;5.82;;;5.22;;
15256;SDS011;7731;50.720;6.912;2022-10-22T06:19:12;9.05;;;6.25;;
15256;SDS011;7731;50.720;6.912;2022-10-22T06:21:44;11.18;;;5.90;;
15256;SDS011;7731;50.720;6.912;2022-10-22T06:24:18;8.63;;;5.28;;
15256;SDS011;7731;50.720;6.912;2022-10-22T06:26:49;13.15;;;5.22;;
15256;SDS011;7731;50.720;6.912;2022-10-22T06:29:20;9.30;;;4.97;;
15256;SDS011;7731;50.720;6.912;2022-10-22T06:31:50;8.50;;;4.60;;
15256;SDS011;7731;50.720;6.912;2022-10-22T06:34:20;8.20;;;4.78;;
15256;SDS011;7731;50.720;6.912;2022-10-22T06:36:51;9.25;;;4.25;;
15256;SDS011;7731;50.720;6.912;2022-10-22T06:39:24;8.13;;;4.25;;
15256;SDS011;7731;50.720;6.912;2022-10-22T06:41:54;5.90;;;4.43;;
15256;SDS011;7731;50.720;6.912;2022-10-22T06:44:25;6.65;;;4.20;;
15256;SDS011;7731;50.720;6.912;2022-10-22T06:46:55;9.15;;;4.03;;
15256;SDS011;7731;50.720;6.912;2022-10-22T06:49:25;7.15;;;3.88;;
15256;SDS011;7731;50.720;6.912;2022-10-22T06:51:56;6.97;;;3.80;;
15256;SDS011;7731;50.720;6.912;2022-10-22T06:54:28;8.25;;;3.95;;
15256;SDS011;7731;50.720;6.912;2022-10-22T06:56:59;5.40;;;3.78;;
15256;SDS011;7731;50.720;6.912;2022-10-22T06:59:29;7.38;;;3.80;;
15256;SDS011;7731;50.720;6.912;2022-10-22T07:02:00;7.47;;;3.65;;
15256;SDS011;7731;50.720;6.912;2022-10-22T07:04:30;7.80;;;3.38;;
15256;SDS011;7731;50.720;6.912;2022-10-22T07:07:00;8.30;;;3.33;;
15256;SDS011;7731;50.720;6.912;2022-10-22T07:09:34;9.07;;;3.60;;
15256;SDS011;7731;50.720;6.912;2022-10-22T07:12:05;13.13;;;3.83;;
15256;SDS011;7731;50.720;6.912;2022-10-22T07:14:36;12.65;;;3.80;;
15256;SDS011;7731;50.720;6.912;2022-10-22T07:17:06;8.38;;;3.10;;
15256;SDS011;7731;50.720;6.912;2022-10-22T07:19:37;6.22;;;3.25;;
15256;SDS011;7731;50.720;6.912;2022-10-22T07:22:07;8.52;;;3.17;;
15256;SDS011;7731;50.720;6.912;2022-10-22T07:24:40;9.13;;;3.70;;
15256;SDS011;7731;50.720;6.912;2022-10-22T07:27:11;11.05;;;3.50;;
15256;SDS011;7731;50.720;6.912;2022-10-22T07:29:41;5.65;;;2.80;;
15256;SDS011;7731;50.720;6.912;2022-10-22T07:32:12;6.57;;;2.40;;
15256;SDS011;7731;50.720;6.912;2022-10-22T07:34:47;5.25;;;1.95;;
15256;SDS011;7731;50.720;6.912;2022-10-22T07:37:17;5.50;;;2.05;;
15256;SDS011;7731;50.720;6.912;2022-10-22T07:39:50;3.95;;;2.03;;
15256;SDS011;7731;50.720;6.912;2022-10-22T07:42:21;5.63;;;2.00;;
15256;SDS011;7731;50.720;6.912;2022-10-22T07:44:51;5.70;;;1.70;;
15256;SDS011;7731;50.720;6.912;2022-10-22T07:47:21;4.95;;;2.00;;
15256;SDS011;7731;50.720;6.912;2022-10-22T07:49:52;5.13;;;1.70;;
15256;SDS011;7731;50.720;6.912;2022-10-22T07:52:22;3.83;;;1.65;;
15256;SDS011;7731;50.720;6.912;2022-10-22T07:54:55;3.17;;;1.80;;
15256;SDS011;7731;50.720;6.912;2022-10-22T07:57:26;6.20;;;2.15;;
15256;SDS011;7731;50.720;6.912;2022-10-22T07:59:57;6.18;;;2.33;;
15256;SDS011;7731;50.720;6.912;2022-10-22T08:02:27;5.55;;;2.50;;
15256;SDS011;7731;50.720;6.912;2022-10-22T08:04:58;6.15;;;2.00;;
15256;SDS011;7731;50.720;6.912;2022-10-22T08:07:28;6.07;;;2.15;;
15256;SDS011;7731;50.720;6.912;2022-10-22T08:10:02;6.93;;;2.00;;
15256;SDS011;7731;50.720;6.912;2022-10-22T08:12:33;5.18;;;2.20;;
15256;SDS011;7731;50.720;6.912;2022-10-22T08:15:04;4.00;;;1.90;;
15256;SDS011;7731;50.720;6.912;2022-10-22T08:17:37;4.57;;;2.08;;
15256;SDS011;7731;50.720;6.912;2022-10-22T08:20:08;4.85;;;1.98;;
15256;SDS011;7731;50.720;6.912;2022-10-22T08:22:39;5.18;;;2.15;;
15256;SDS011;7731;50.720;6.912;2022-10-22T08:25:12;5.00;;;1.88;;
15256;SDS011;7731;50.720;6.912;2022-10-22T08:27:43;5.30;;;2.20;;
15256;SDS011;7731;50.720;6.912;2022-10-22T08:30:14;4.80;;;1.95;;
15256;SDS011;7731;50.720;6.912;2022-10-22T08:32:45;6.85;;;1.90;;
15256;SDS011;7731;50.720;6.912;2022-10-22T08:35:19;5.55;;;2.10;;
15256;SDS011;7731;50.720;6.912;2022-10-22T08:37:50;6.88;;;1.77;;
15256;SDS011;7731;50.720;6.912;2022-10-22T08:40:24;5.05;;;1.98;;
15256;SDS011;7731;50.720;6.912;2022-10-22T08:43:11;5.53;;;1.90;;
15256;SDS011;7731;50.720;6.912;2022-10-22T08:46:08;4.82;;;2.15;;
15256;SDS011;7731;50.720;6.912;2022-10-22T08:49:02;4.88;;;1.90;;
15256;SDS011;7731;50.720;6.912;2022-10-22T08:51:39;9.70;;;2.60;;
15256;SDS011;7731;50.720;6.912;2022-10-22T08:54:15;7.15;;;2.20;;
15256;SDS011;7731;50.720;6.912;2022-10-22T08:57:12;5.28;;;2.08;;
15256;SDS011;7731;50.720;6.912;2022-10-22T09:00:03;6.75;;;2.08;;
15256;SDS011;7731;50.720;6.912;2022-10-22T09:02:46;3.45;;;2.10;;
15256;SDS011;7731;50.720;6.912;2022-10-22T09:05:38;7.53;;;2.80;;
15256;SDS011;7731;50.720;6.912;2022-10-22T09:08:36;5.65;;;2.40;;
15256;SDS011;7731;50.720;6.912;2022-10-22T09:11:13;6.13;;;2.15;;
15256;SDS011;7731;50.720;6.912;2022-10-22T09:13:56;5.75;;;2.28;;
15256;SDS011;7731;50.720;6.912;2022-10-22T09:16:31;5.05;;;2.22;;
15256;SDS011;7731;50.720;6.912;2022-10-22T09:19:12;4.60;;;1.75;;
15256;SDS011;7731;50.720;6.912;2022-10-22T09:21:51;4.60;;;1.55;;
15256;SDS011;7731;50.720;6.912;2022-10-22T09:24:35;4.78;;;1.55;;
15256;SDS011;7731;50.720;6.912;2022-10-22T09:27:11;4.70;;;1.50;;
15256;SDS011;7731;50.720;6.912;2022-10-22T09:29:47;4.55;;;1.70;;
15256;SDS011;7731;50.720;6.912;2022-10-22T09:32:20;6.22;;;2.00;;
15256;SDS011;7731;50.720;6.912;2022-10-22T09:34:53;6.25;;;1.50;;
15256;SDS011;7731;50.720;6.912;2022-10-22T09:37:28;6.00;;;1.63;;
15256;SDS011;7731;50.720;6.912;2022-10-22T09:39:58;5.93;;;1.65;;
15256;SDS011;7731;50.720;6.912;2022-10-22T09:42:34;3.88;;;1.50;;
15256;SDS011;7731;50.720;6.912;2022-10-22T09:45:16;2.92;;;1.27;;
15256;SDS011;7731;50.720;6.912;2022-10-22T09:47:49;6.80;;;1.67;;
15256;SDS011;7731;50.720;6.912;2022-10-22T09:50:40;4.45;;;1.85;;
15256;SDS011;7731;50.720;6.912;2022-10-22T09:53:16;3.80;;;1.50;;
15256;SDS011;7731;50.720;6.912;2022-10-22T09:55:52;7.82;;;2.00;;
15256;SDS011;7731;50.720;6.912;2022-10-22T09:58:42;5.57;;;1.52;;
15256;SDS011;7731;50.720;6.912;2022-10-22T10:01:19;5.22;;;1.48;;
15256;SDS011;7731;50.720;6.912;2022-10-22T10:03:53;5.75;;;1.65;;
15256;SDS011;7731;50.720;6.912;2022-10-22T10:06:36;5.30;;;1.92;;
15256;SDS011;7731;50.720;6.912;2022-10-22T10:09:12;3.30;;;1.10;;
15256;SDS011;7731;50.720;6.912;2022-10-22T10:11:48;4.07;;;1.45;;
15256;SDS011;7731;50.720;6.912;2022-10-22T10:14:26;5.07;;;1.50;;
15256;SDS011;7731;50.720;6.912;2022-10-22T10:17:15;2.70;;;1.23;;
15256;SDS011;7731;50.720;6.912;2022-10-22T10:20:14;4.07;;;1.17;;
15256;SDS011;7731;50.720;6.912;2022-10-22T10:23:00;4.15;;;1.20;;
15256;SDS011;7731;50.720;6.912;2022-10-22T10:25:45;5.57;;;1.52;;
15256;SDS011;7731;50.720;6.912;2022-10-22T10:28:35;4.47;;;1.50;;
15256;SDS011;7731;50.720;6.912;2022-10-22T10:31:32;3.58;;;1.40;;
15256;SDS011;7731;50.720;6.912;2022-10-22T10:34:17;4.72;;;1.90;;
15256;SDS011;7731;50.720;6.912;2022-10-22T10:37:03;3.67;;;1.35;;
15256;SDS011;7731;50.720;6.912;2022-10-22T10:40:03;2.35;;;1.23;;
15256;SDS011;7731;50.720;6.912;2022-10-22T10:42:53;6.53;;;1.83;;
15256;SDS011;7731;50.720;6.912;2022-10-22T10:45:30;6.45;;;2.50;;
15256;SDS011;7731;50.720;6.912;2022-10-22T10:48:14;4.82;;;1.80;;
15256;SDS011;7731;50.720;6.912;2022-10-22T10:51:10;3.30;;;1.75;;
15256;SDS011;7731;50.720;6.912;2022-10-22T10:54:08;2.95;;;1.83;;
15256;SDS011;7731;50.720;6.912;2022-10-22T10:56:56;4.00;;;1.80;;
15256;SDS011;7731;50.720;6.912;2022-10-22T10:59:38;7.20;;;2.25;;
15256;SDS011;7731;50.720;6.912;2022-10-22T11:05:38;3.47;;;1.80;;
15256;SDS011;7731;50.720;6.912;2022-10-22T11:08:17;6.93;;;4.68;;
15256;SDS011;7731;50.720;6.912;2022-10-22T11:10:53;5.82;;;2.17;;
15256;SDS011;7731;50.720;6.912;2022-10-22T11:13:33;4.93;;;2.13;;
15256;SDS011;7731;50.720;6.912;2022-10-22T11:16:09;7.22;;;2.22;;
15256;SDS011;7731;50.720;6.912;2022-10-22T11:18:51;4.75;;;2.30;;
15256;SDS011;7731;50.720;6.912;2022-10-22T11:21:33;4.10;;;1.90;;
15256;SDS011;7731;50.720;6.912;2022-10-22T11:24:15;9.88;;;2.70;;
15256;SDS011;7731;50.720;6.912;2022-10-22T11:27:01;4.53;;;2.25;;
15256;SDS011;7731;50.720;6.912;2022-10-22T11:29:40;3.85;;;2.17;;
15256;SDS011;7731;50.720;6.912;2022-10-22T11:32:18;3.30;;;1.90;;
15256;SDS011;7731;50.720;6.912;2022-10-22T11:34:52;6.25;;;2.63;;
15256;SDS011;7731;50.720;6.912;2022-10-22T11:37:29;4.28;;;2.20;;
15256;SDS011;7731;50.720;6.912;2022-10-22T11:40:12;3.53;;;1.80;;
15256;SDS011;7731;50.720;6.912;2022-10-22T11:42:48;4.38;;;2.13;;
15256;SDS011;7731;50.720;6.912;2022-10-22T11:45:26;4.47;;;1.90;;
15256;SDS011;7731;50.720;6.912;2022-10-22T11:48:05;2.65;;;1.52;;
15256;SDS011;7731;50.720;6.912;2022-10-22T11:50:48;4.80;;;1.85;;
15256;SDS011;7731;50.720;6.912;2022-10-22T11:53:27;3.75;;;1.90;;
15256;SDS011;7731;50.720;6.912;2022-10-22T11:58:56;4.15;;;1.85;;
15256;SDS011;7731;50.720;6.912;2022-10-22T12:01:29;5.35;;;1.98;;
15256;SDS011;7731;50.720;6.912;2022-10-22T12:04:14;3.65;;;2.00;;
15256;SDS011;7731;50.720;6.912;2022-10-22T12:07:00;3.40;;;1.65;;
15256;SDS011;7731;50.720;6.912;2022-10-22T12:09:31;2.85;;;1.17;;
15256;SDS011;7731;50.720;6.912;2022-10-22T12:12:09;5.43;;;1.20;;
15256;SDS011;7731;50.720;6.912;2022-10-22T12:14:50;3.63;;;1.50;;
15256;SDS011;7731;50.720;6.912;2022-10-22T12:17:23;3.75;;;1.23;;
15256;SDS011;7731;50.720;6.912;2022-10-22T12:20:03;2.70;;;0.98;;
15256;SDS011;7731;50.720;6.912;2022-10-22T12:22:44;2.35;;;1.20;;
15256;SDS011;7731;50.720;6.912;2022-10-22T12:25:16;2.38;;;0.98;;
15256;SDS011;7731;50.720;6.912;2022-10-22T12:28:09;5.78;;;1.40;;
15256;SDS011;7731;50.720;6.912;2022-10-22T12:30:41;5.20;;;1.20;;
15256;SDS011;7731;50.720;6.912;2022-10-22T12:33:17;3.05;;;1.27;;
15256;SDS011;7731;50.720;6.912;2022-10-22T12:35:53;3.22;;;1.30;;
15256;SDS011;7731;50.720;6.912;2022-10-22T12:38:29;2.22;;;0.90;;
15256;SDS011;7731;50.720;6.912;2022-10-22T12:41:04;3.10;;;1.02;;
15256;SDS011;7731;50.720;6.912;2022-10-22T12:43:43;4.00;;;1.60;;
15256;SDS011;7731;50.720;6.912;2022-10-22T12:46:15;2.85;;;1.23;;
15256;SDS011;7731;50.720;6.912;2022-10-22T12:48:47;4.40;;;1.30;;
15256;SDS011;7731;50.720;6.912;2022-10-22T12:51:20;4.70;;;1.10;;
15256;SDS011;7731;50.720;6.912;2022-10-22T12:53:51;2.65;;;0.93;;
15256;SDS011;7731;50.720;6.912;2022-10-22T12:56:25;5.00;;;1.30;;
15256;SDS011;7731;50.720;6.912;2022-10-22T12:59:06;3.47;;;1.00;;
15256;SDS011;7731;50.720;6.912;2022-10-22T13:01:52;6.35;;;1.08;;
15256;SDS011;7731;50.720;6.912;2022-10-22T13:04:36;1.70;;;0.80;;
15256;SDS011;7731;50.720;6.912;2022-10-22T13:07:17;6.80;;;5.95;;
15256;SDS011;7731;50.720;6.912;2022-10-22T13:09:56;3.17;;;1.77;;
15256;SDS011;7731;50.720;6.912;2022-10-22T13:12:33;3.58;;;1.70;;
15256;SDS011;7731;50.720;6.912;2022-10-22T13:18:15;3.17;;;1.70;;
15256;SDS011;7731;50.720;6.912;2022-10-22T13:20:49;3.78;;;1.30;;
15256;SDS011;7731;50.720;6.912;2022-10-22T13:23:23;1.85;;;1.00;;
15256;SDS011;7731;50.720;6.912;2022-10-22T13:25:56;3.20;;;1.00;;
15256;SDS011;7731;50.720;6.912;2022-10-22T13:28:32;2.75;;;1.02;;
15256;SDS011;7731;50.720;6.912;2022-10-22T13:31:13;3.15;;;1.25;;
15256;SDS011;7731;50.720;6.912;2022-10-22T13:33:50;5.70;;;1.33;;
15256;SDS011;7731;50.720;6.912;2022-10-22T13:36:28;3.15;;;1.10;;
15256;SDS011;7731;50.720;6.912;2022-10-22T13:38:59;4.53;;;1.45;;
15256;SDS011;7731;50.720;6.912;2022-10-22T13:41:36;2.20;;;1.48;;
15256;SDS011;7731;50.720;6.912;2022-10-22T13:44:07;3.67;;;1.02;;
15256;SDS011;7731;50.720;6.912;2022-10-22T13:46:40;3.30;;;1.17;;
15256;SDS011;7731;50.720;6.912;2022-10-22T13:49:11;4.22;;;1.20;;
15256;SDS011;7731;50.720;6.912;2022-10-22T13:51:44;3.00;;;1.60;;
15256;SDS011;7731;50.720;6.912;2022-10-22T13:54:18;4.50;;;1.25;;
15256;SDS011;7731;50.720;6.912;2022-10-22T13:56:51;4.00;;;1.40;;
15256;SDS011;7731;50.720;6.912;2022-10-22T13:59:21;3.47;;;1.48;;
15256;SDS011;7731;50.720;6.912;2022-10-22T14:01:54;3.45;;;1.80;;
15256;SDS011;7731;50.720;6.912;2022-10-22T14:04:34;5.55;;;1.45;;
15256;SDS011;7731;50.720;6.912;2022-10-22T14:07:12;11.23;;;7.00;;
15256;SDS011;7731;50.720;6.912;2022-10-22T14:09:44;4.00;;;1.27;;
15256;SDS011;7731;50.720;6.912;2022-10-22T14:12:15;2.33;;;1.40;;
15256;SDS011;7731;50.720;6.912;2022-10-22T14:14:48;5.03;;;1.50;;
15256;SDS011;7731;50.720;6.912;2022-10-22T14:17:21;5.97;;;1.55;;
15256;SDS011;7731;50.720;6.912;2022-10-22T14:19:51;4.03;;;1.40;;
15256;SDS011;7731;50.720;6.912;2022-10-22T14:22:27;2.13;;;1.30;;
15256;SDS011;7731;50.720;6.912;2022-10-22T14:25:00;2.50;;;1.23;;
15256;SDS011;7731;50.720;6.912;2022-10-22T14:27:42;5.05;;;1.67;;
15256;SDS011;7731;50.720;6.912;2022-10-22T14:30:13;3.38;;;1.50;;
15256;SDS011;7731;50.720;6.912;2022-10-22T14:32:51;4.63;;;1.23;;
15256;SDS011;7731;50.720;6.912;2022-10-22T14:35:24;3.40;;;1.30;;
15256;SDS011;7731;50.720;6.912;2022-10-22T14:37:54;3.33;;;1.40;;
15256;SDS011;7731;50.720;6.912;2022-10-22T14:40:24;4.20;;;1.70;;
15256;SDS011;7731;50.720;6.912;2022-10-22T14:42:54;3.20;;;1.42;;
15256;SDS011;7731;50.720;6.912;2022-10-22T14:45:25;4.47;;;1.75;;
15256;SDS011;7731;50.720;6.912;2022-10-22T14:48:07;4.38;;;1.77;;
15256;SDS011;7731;50.720;6.912;2022-10-22T14:50:37;3.30;;;1.55;;
15256;SDS011;7731;50.720;6.912;2022-10-22T14:53:07;7.45;;;3.78;;
15256;SDS011;7731;50.720;6.912;2022-10-22T14:55:42;3.83;;;1.92;;
15256;SDS011;7731;50.720;6.912;2022-10-22T14:58:20;4.55;;;1.80;;
15256;SDS011;7731;50.720;6.912;2022-10-22T15:00:50;3.08;;;1.35;;
15256;SDS011;7731;50.720;6.912;2022-10-22T15:03:26;3.70;;;1.25;;
15256;SDS011;7731;50.720;6.912;2022-10-22T15:06:03;3.88;;;1.50;;
15256;SDS011;7731;50.720;6.912;2022-10-22T15:08:37;5.60;;;1.52;;
15256;SDS011;7731;50.720;6.912;2022-10-22T15:11:09;5.10;;;1.50;;
15256;SDS011;7731;50.720;6.912;2022-10-22T15:13:44;1.90;;;1.13;;
15256;SDS011;7731;50.720;6.912;2022-10-22T15:16:16;3.33;;;1.40;;
15256;SDS011;7731;50.720;6.912;2022-10-22T15:18:49;3.30;;;1.60;;
15256;SDS011;7731;50.720;6.912;2022-10-22T15:21:20;4.97;;;2.30;;
15256;SDS011;7731;50.720;6.912;2022-10-22T15:23:51;2.70;;;1.90;;
15256;SDS011;7731;50.720;6.912;2022-10-22T15:26:21;4.53;;;2.70;;
15256;SDS011;7731;50.720;6.912;2022-10-22T15:28:53;11.38;;;8.88;;
15256;SDS011;7731;50.720;6.912;2022-10-22T15:31:43;6.38;;;3.10;;
15256;SDS011;7731;50.720;6.912;2022-10-22T15:34:20;4.18;;;1.73;;
15256;SDS011;7731;50.720;6.912;2022-10-22T15:36:58;7.13;;;5.65;;
15256;SDS011;7731;50.720;6.912;2022-10-22T15:39:30;9.02;;;5.30;;
15256;SDS011;7731;50.720;6.912;2022-10-22T15:42:01;10.82;;;6.97;;
15256;SDS011;7731;50.720;6.912;2022-10-22T15:44:35;7.85;;;3.45;;
15256;SDS011;7731;50.720;6.912;2022-10-22T15:47:06;5.68;;;2.00;;
15256;SDS011;7731;50.720;6.912;2022-10-22T15:49:39;4.50;;;1.52;;
15256;SDS011;7731;50.720;6.912;2022-10-22T15:52:09;5.53;;;1.40;;
15256;SDS011;7731;50.720;6.912;2022-10-22T15:54:43;5.90;;;1.75;;
15256;SDS011;7731;50.720;6.912;2022-10-22T15:57:13;7.88;;;1.70;;
15256;SDS011;7731;50.720;6.912;2022-10-22T15:59:43;3.30;;;1.63;;
15256;SDS011;7731;50.720;6.912;2022-10-22T16:02:15;5.57;;;1.67;;
15256;SDS011;7731;50.720;6.912;2022-10-22T16:04:50;4.05;;;2.28;;
15256;SDS011;7731;50.720;6.912;2022-10-22T16:07:27;6.13;;;3.17;;